createdAt,value
2018-04-27T00:00:59.031Z,6.70
2018-04-27T00:03:27.431Z,6.90
2018-04-27T00:05:55.080Z,6.90
2018-04-27T00:08:23.472Z,6.90
2018-04-27T00:10:51.495Z,6.90
2018-04-27T00:13:19.145Z,7.00
2018-04-27T00:15:47.294Z,7.00
2018-04-27T00:18:14.956Z,7.00
2018-04-27T00:20:43.400Z,6.90
2018-04-27T00:23:11.448Z,6.80
2018-04-27T00:25:39.438Z,6.70
2018-04-27T00:28:07.045Z,6.70
2018-04-27T00:30:35.443Z,6.60
2018-04-27T00:33:03.430Z,6.60
2018-04-27T00:35:31.529Z,6.60
2018-04-27T00:37:59.205Z,6.60
2018-04-27T00:40:27.601Z,6.60
2018-04-27T00:42:55.225Z,6.60
2018-04-27T00:45:23.120Z,6.70
2018-04-27T00:47:50.785Z,6.80
2018-04-27T00:50:18.392Z,6.80
2018-04-27T00:52:58.564Z,6.80
2018-04-27T00:55:26.964Z,6.70
2018-04-27T00:57:54.580Z,6.70
2018-04-27T01:00:23.194Z,6.70
2018-04-27T01:02:50.833Z,6.70
2018-04-27T01:05:18.553Z,6.70
2018-04-27T01:07:46.189Z,6.70
2018-04-27T01:10:14.592Z,6.60
2018-04-27T01:12:42.279Z,6.60
2018-04-27T01:15:09.890Z,6.50
2018-04-27T01:17:37.485Z,6.50
2018-04-27T01:20:05.139Z,6.40
2018-04-27T01:22:32.804Z,6.40
2018-04-27T01:25:01.898Z,6.30
2018-04-27T01:27:29.592Z,6.30
2018-04-27T01:29:57.214Z,6.20
2018-04-27T01:32:24.881Z,6.20
2018-04-27T01:34:52.545Z,6.20
2018-04-27T01:37:20.195Z,6.10
2018-04-27T01:39:47.792Z,6.20
2018-04-27T01:42:15.421Z,6.00
2018-04-27T01:44:43.397Z,6.00
2018-04-27T01:47:11.077Z,6.00
2018-04-27T01:49:38.709Z,5.90
2018-04-27T01:52:06.345Z,5.90
2018-04-27T01:54:34.725Z,5.70
2018-04-27T01:57:02.627Z,5.70
2018-04-27T01:59:31.062Z,5.70
2018-04-27T02:01:59.134Z,5.60
2018-04-27T02:04:26.795Z,5.60
2018-04-27T02:06:54.459Z,5.50
2018-04-27T02:09:22.916Z,5.30
2018-04-27T02:11:51.140Z,5.30
2018-04-27T02:14:19.087Z,5.40
2018-04-27T02:16:46.709Z,5.30
2018-04-27T02:19:15.102Z,5.20
2018-04-27T02:21:43.092Z,5.20
2018-04-27T02:24:11.100Z,5.20
2018-04-27T02:26:39.567Z,5.20
2018-04-27T02:29:07.549Z,5.20
2018-04-27T02:31:35.216Z,5.20
2018-04-27T02:34:02.875Z,5.10
2018-04-27T02:36:30.509Z,5.10
2018-04-27T02:38:59.165Z,5.00
2018-04-27T02:41:26.802Z,5.00
2018-04-27T02:43:54.440Z,5.00
2018-04-27T02:46:22.165Z,5.00
2018-04-27T02:48:49.859Z,4.90
2018-04-27T02:51:18.261Z,4.80
2018-04-27T02:53:45.968Z,4.80
2018-04-27T02:56:13.918Z,4.70
2018-04-27T02:58:41.605Z,4.60
2018-04-27T03:01:09.585Z,4.60
2018-04-27T03:03:37.236Z,4.60
2018-04-27T03:06:04.862Z,4.60
2018-04-27T03:08:33.269Z,4.60
2018-04-27T03:11:01.233Z,4.60
2018-04-27T03:13:28.901Z,4.70
2018-04-27T03:15:56.548Z,4.80
2018-04-27T03:18:24.962Z,4.70
2018-04-27T03:20:52.590Z,4.70
2018-04-27T03:23:20.951Z,4.60
2018-04-27T03:25:48.603Z,4.60
2018-04-27T03:28:16.245Z,4.50
2018-04-27T03:30:43.909Z,4.40
2018-04-27T03:33:11.523Z,4.50
2018-04-27T03:35:39.186Z,4.40
2018-04-27T03:38:06.935Z,4.40
2018-04-27T03:40:34.545Z,4.40
2018-04-27T03:43:02.188Z,4.30
2018-04-27T03:45:30.623Z,4.10
2018-04-27T03:47:58.275Z,4.10
2018-04-27T03:50:26.651Z,4.10
2018-04-27T03:52:55.125Z,4.10
2018-04-27T03:55:22.768Z,4.10
2018-04-27T03:57:50.426Z,4.10
2018-04-27T04:00:30.838Z,4.10
2018-04-27T04:05:59.886Z,4.10
2018-04-27T04:08:27.525Z,4.10
2018-04-27T04:10:55.209Z,4.00
2018-04-27T04:13:22.861Z,4.00
2018-04-27T04:15:50.538Z,4.00
2018-04-27T04:18:18.260Z,4.00
2018-04-27T04:20:46.760Z,4.10
2018-04-27T04:23:15.153Z,4.10
2018-04-27T04:25:43.106Z,4.10
2018-04-27T04:28:11.979Z,4.20
2018-04-27T04:30:40.398Z,4.10
2018-04-27T04:33:09.621Z,4.20
2018-04-27T04:35:37.338Z,4.20
2018-04-27T04:38:05.786Z,4.50
2018-04-27T04:40:33.557Z,4.50
2018-04-27T04:43:01.245Z,4.40
2018-04-27T04:45:28.885Z,4.50
2018-04-27T04:47:56.957Z,4.60
2018-04-27T04:50:25.341Z,4.50
2018-04-27T04:52:53.001Z,4.60
2018-04-27T04:55:20.660Z,4.60
2018-04-27T04:57:48.293Z,4.70
2018-04-27T05:00:16.069Z,4.80
2018-04-27T05:02:44.620Z,4.90
2018-04-27T05:05:12.271Z,5.00
2018-04-27T05:07:39.937Z,5.20
2018-04-27T05:10:08.362Z,5.30
2018-04-27T05:12:36.021Z,5.50
2018-04-27T05:15:03.685Z,5.60
2018-04-27T05:17:31.378Z,5.70
2018-04-27T05:19:59.284Z,5.90
2018-04-27T05:22:27.538Z,5.90
2018-04-27T05:24:55.962Z,6.20
2018-04-27T05:27:23.664Z,6.10
2018-04-27T05:29:52.320Z,6.30
2018-04-27T05:32:20.077Z,6.40
2018-04-27T05:34:47.783Z,6.50
2018-04-27T05:37:15.489Z,6.60
2018-04-27T05:39:43.164Z,6.80
2018-04-27T05:42:11.636Z,7.10
2018-04-27T05:44:39.320Z,7.10
2018-04-27T05:47:07.042Z,7.20
2018-04-27T05:49:35.658Z,7.30
2018-04-27T05:52:04.073Z,7.50
2018-04-27T05:54:31.725Z,7.40
2018-04-27T05:56:59.368Z,7.50
2018-04-27T05:59:27.854Z,7.70
2018-04-27T06:01:56.286Z,7.80
2018-04-27T06:04:23.915Z,7.80
2018-04-27T06:06:53.053Z,7.90
2018-04-27T06:09:20.715Z,7.90
2018-04-27T06:11:48.711Z,8.00
2018-04-27T06:14:16.353Z,8.10
2018-04-27T06:16:44.010Z,8.10
2018-04-27T06:19:12.385Z,8.30
2018-04-27T06:21:40.984Z,8.40
2018-04-27T06:24:08.601Z,8.40
2018-04-27T06:26:37.085Z,8.50
2018-04-27T06:29:04.726Z,8.60
2018-04-27T06:31:33.255Z,8.80
2018-04-27T06:34:00.940Z,8.90
2018-04-27T06:36:28.600Z,9.10
2018-04-27T06:38:56.541Z,9.20
2018-04-27T06:41:24.236Z,9.40
2018-04-27T06:43:52.698Z,9.90
2018-04-27T06:46:20.351Z,9.90
2018-04-27T06:48:48.271Z,9.80
2018-04-27T06:51:16.693Z,10.00
2018-04-27T06:53:44.411Z,10.00
2018-04-27T06:56:13.565Z,10.20
2018-04-27T06:58:41.214Z,10.20
2018-04-27T07:01:08.881Z,10.20
2018-04-27T07:03:36.496Z,10.40
2018-04-27T07:06:04.166Z,10.70
2018-04-27T07:08:32.648Z,10.70
2018-04-27T07:11:00.311Z,10.90
2018-04-27T07:13:27.984Z,11.10
2018-04-27T07:15:55.648Z,11.50
2018-04-27T07:18:24.108Z,12.10
2018-04-27T07:20:51.756Z,12.10
2018-04-27T07:23:19.427Z,12.20
2018-04-27T07:25:47.115Z,12.20
2018-04-27T07:28:14.755Z,12.40
2018-04-27T07:30:42.410Z,12.60
2018-04-27T07:33:10.834Z,12.90
2018-04-27T07:35:39.178Z,12.90
2018-04-27T07:38:06.833Z,13.00
2018-04-27T07:40:35.229Z,13.30
2018-04-27T07:43:02.897Z,13.30
2018-04-27T07:45:31.294Z,13.70
2018-04-27T07:47:59.029Z,13.70
2018-04-27T07:50:27.598Z,14.30
2018-04-27T07:52:55.287Z,14.30
2018-04-27T07:55:23.004Z,14.00
2018-04-27T07:57:50.712Z,14.10
2018-04-27T08:00:18.877Z,14.30
2018-04-27T08:02:46.540Z,14.70
2018-04-27T08:05:14.184Z,14.80
2018-04-27T08:07:42.765Z,15.20
2018-04-27T08:10:10.430Z,15.50
2018-04-27T08:12:38.059Z,15.40
2018-04-27T08:15:06.156Z,15.80
2018-04-27T08:17:34.577Z,16.00
2018-04-27T08:20:02.239Z,15.90
2018-04-27T08:22:29.927Z,15.90
2018-04-27T08:24:57.911Z,15.90
2018-04-27T08:27:25.560Z,16.10
2018-04-27T08:29:53.632Z,16.50
2018-04-27T08:32:21.268Z,16.50
2018-04-27T08:34:48.946Z,16.80
2018-04-27T08:37:16.676Z,16.80
2018-04-27T08:39:45.119Z,17.40
2018-04-27T08:42:13.297Z,17.40
2018-04-27T08:44:41.183Z,17.30
2018-04-27T08:47:08.829Z,17.20
2018-04-27T08:49:36.479Z,17.50
2018-04-27T08:52:04.110Z,18.00
2018-04-27T08:54:31.798Z,18.20
2018-04-27T08:56:59.423Z,18.30
2018-04-27T08:59:27.050Z,17.90
2018-04-27T09:01:54.806Z,17.20
2018-04-27T09:04:22.483Z,17.70
2018-04-27T09:06:50.125Z,17.90
2018-04-27T09:09:18.560Z,18.20
2018-04-27T09:11:46.252Z,18.20
2018-04-27T09:14:13.879Z,17.90
2018-04-27T09:16:41.573Z,18.10
2018-04-27T09:19:09.184Z,18.30
2018-04-27T09:21:37.667Z,18.80
2018-04-27T09:24:05.341Z,18.70
2018-04-27T09:26:33.761Z,18.80
2018-04-27T09:29:01.448Z,18.80
2018-04-27T09:31:29.068Z,18.60
2018-04-27T09:33:56.701Z,18.30
2018-04-27T09:36:25.127Z,19.10
2018-04-27T09:38:52.805Z,19.10
2018-04-27T09:41:20.492Z,19.20
2018-04-27T09:43:48.126Z,19.40
2018-04-27T09:46:15.786Z,18.80
2018-04-27T09:48:43.453Z,18.90
2018-04-27T09:51:11.406Z,19.10
2018-04-27T09:53:39.054Z,19.90
2018-04-27T09:56:06.686Z,20.00
2018-04-27T09:58:34.375Z,20.00
2018-04-27T10:01:02.676Z,20.10
2018-04-27T10:03:31.061Z,19.70
2018-04-27T10:05:59.497Z,19.40
2018-04-27T10:08:27.145Z,19.40
2018-04-27T10:10:54.835Z,19.60
2018-04-27T10:13:22.494Z,20.20
2018-04-27T10:15:50.140Z,20.50
2018-04-27T10:18:18.519Z,20.30
2018-04-27T10:20:46.126Z,20.20
2018-04-27T10:23:13.801Z,20.80
2018-04-27T10:25:42.225Z,20.80
2018-04-27T10:28:10.656Z,20.90
2018-04-27T10:30:38.723Z,20.80
2018-04-27T10:33:07.911Z,20.50
2018-04-27T10:35:35.525Z,20.50
2018-04-27T10:38:03.565Z,21.70
2018-04-27T10:40:31.276Z,21.00
2018-04-27T10:42:58.931Z,21.20
2018-04-27T10:45:26.608Z,20.70
2018-04-27T10:47:54.260Z,21.00
2018-04-27T10:50:21.953Z,21.00
2018-04-27T10:52:49.585Z,20.30
2018-04-27T10:55:17.251Z,20.10
2018-04-27T10:57:44.878Z,20.20
2018-04-27T11:00:12.530Z,19.50
2018-04-27T11:02:44.384Z,20.20
2018-04-27T11:05:12.008Z,20.20
2018-04-27T11:07:39.687Z,20.90
2018-04-27T11:10:07.500Z,21.20
2018-04-27T11:12:35.947Z,21.70
2018-04-27T11:15:03.632Z,21.60
2018-04-27T11:17:31.521Z,21.90
2018-04-27T11:19:59.962Z,21.80
2018-04-27T11:22:27.649Z,21.70
2018-04-27T11:24:55.268Z,22.10
2018-04-27T11:27:23.217Z,22.40
2018-04-27T11:29:51.597Z,21.30
2018-04-27T11:32:20.077Z,22.10
2018-04-27T11:34:48.780Z,22.60
2018-04-27T11:37:17.196Z,22.30
2018-04-27T11:39:45.401Z,22.30
2018-04-27T11:42:13.081Z,22.60
2018-04-27T11:44:41.518Z,22.50
2018-04-27T11:47:09.195Z,23.00
2018-04-27T11:49:36.885Z,23.00
2018-04-27T11:52:04.828Z,22.60
2018-04-27T11:54:32.575Z,23.10
2018-04-27T11:57:00.871Z,23.80
2018-04-27T11:59:30.349Z,23.30
2018-04-27T12:01:59.581Z,23.50
2018-04-27T12:04:27.609Z,23.50
2018-04-27T12:06:55.741Z,23.60
2018-04-27T12:09:23.439Z,23.70
2018-04-27T12:11:51.096Z,22.70
2018-04-27T12:14:18.704Z,22.10
2018-04-27T12:16:47.099Z,22.20
2018-04-27T12:19:15.573Z,22.70
2018-04-27T12:21:43.254Z,22.60
2018-04-27T12:24:11.662Z,22.20
2018-04-27T12:26:39.871Z,22.10
2018-04-27T12:29:07.510Z,22.50
2018-04-27T12:31:35.187Z,22.30
2018-04-27T12:34:02.899Z,22.00
2018-04-27T12:36:30.575Z,21.80
2018-04-27T12:38:58.238Z,21.20
2018-04-27T12:41:25.920Z,21.50
2018-04-27T12:43:53.535Z,22.60
2018-04-27T12:46:22.157Z,21.90
2018-04-27T12:48:50.612Z,21.40
2018-04-27T12:51:18.256Z,21.40
2018-04-27T12:53:46.235Z,21.30
2018-04-27T12:56:14.051Z,21.20
2018-04-27T12:58:41.854Z,21.40
2018-04-27T13:01:09.839Z,21.40
2018-04-27T13:03:38.509Z,21.40
2018-04-27T13:06:06.139Z,21.80
2018-04-27T13:08:33.833Z,21.80
2018-04-27T13:11:02.356Z,21.90
2018-04-27T13:13:30.017Z,21.80
2018-04-27T13:15:57.662Z,21.30
2018-04-27T13:18:25.378Z,20.90
2018-04-27T13:20:53.006Z,20.90
2018-04-27T13:23:20.653Z,21.00
2018-04-27T13:25:48.321Z,20.80
2018-04-27T13:28:16.909Z,20.60
2018-04-27T13:30:44.550Z,20.60
2018-04-27T13:33:12.173Z,20.90
2018-04-27T13:35:39.853Z,20.90
2018-04-27T13:38:07.467Z,20.90
2018-04-27T13:40:35.140Z,20.70
2018-04-27T13:43:03.564Z,20.50
2018-04-27T13:45:31.218Z,20.40
2018-04-27T13:47:59.282Z,20.20
2018-04-27T13:50:26.946Z,20.20
2018-04-27T13:52:54.605Z,20.50
2018-04-27T13:55:22.284Z,20.50
2018-04-27T13:57:49.922Z,20.20
2018-04-27T14:00:18.957Z,20.50
2018-04-27T14:02:46.592Z,20.50
2018-04-27T14:05:14.290Z,20.10
2018-04-27T14:07:42.242Z,20.10
2018-04-27T14:10:09.921Z,19.70
2018-04-27T14:12:37.961Z,20.10
2018-04-27T14:15:06.401Z,20.10
2018-04-27T14:17:34.408Z,20.10
2018-04-27T14:20:02.165Z,20.10
2018-04-27T14:22:30.987Z,20.00
2018-04-27T14:24:59.562Z,20.00
2018-04-27T14:27:28.122Z,19.80
2018-04-27T14:29:55.751Z,19.80
2018-04-27T14:32:23.483Z,20.00
2018-04-27T14:34:51.140Z,19.70
2018-04-27T14:37:18.801Z,19.60
2018-04-27T14:39:46.531Z,19.30
2018-04-27T14:42:14.198Z,19.50
2018-04-27T14:44:41.971Z,19.70
2018-04-27T14:47:09.969Z,19.70
2018-04-27T14:49:37.653Z,20.00
2018-04-27T14:52:05.348Z,20.20
2018-04-27T14:54:33.022Z,20.00
2018-04-27T14:57:01.912Z,19.80
2018-04-27T14:59:29.561Z,19.70
2018-04-27T15:01:57.290Z,19.70
2018-04-27T15:04:25.958Z,19.60
2018-04-27T15:06:53.695Z,19.60
2018-04-27T15:09:22.437Z,19.50
2018-04-27T15:11:50.065Z,19.30
2018-04-27T15:14:17.692Z,19.40
2018-04-27T15:16:45.344Z,19.90
2018-04-27T15:19:12.954Z,19.60
2018-04-27T15:21:41.357Z,19.20
2018-04-27T15:24:09.824Z,18.80
2018-04-27T15:26:37.422Z,18.80
2018-04-27T15:29:05.216Z,19.00
2018-04-27T15:31:33.267Z,19.00
2018-04-27T15:34:00.965Z,18.80
2018-04-27T15:36:28.626Z,18.30
2018-04-27T15:38:56.290Z,18.50
2018-04-27T15:41:24.113Z,18.60
2018-04-27T15:43:52.558Z,18.40
2018-04-27T15:46:20.254Z,18.40
2018-04-27T15:48:48.761Z,17.80
2018-04-27T15:51:16.403Z,17.80
2018-04-27T15:53:44.081Z,17.70
2018-04-27T15:56:11.808Z,17.60
2018-04-27T15:58:40.137Z,17.80
2018-04-27T16:01:07.801Z,18.10
2018-04-27T16:03:36.184Z,17.50
2018-04-27T16:06:04.659Z,17.60
2018-04-27T16:08:32.304Z,17.60
2018-04-27T16:10:59.967Z,17.60
2018-04-27T16:13:56.159Z,17.40
2018-04-27T16:16:24.794Z,17.40
2018-04-27T16:18:54.889Z,17.30
2018-04-27T16:21:22.630Z,17.20
2018-04-27T16:23:51.432Z,17.00
2018-04-27T16:26:34.755Z,16.90
2018-04-27T16:29:04.346Z,16.90
2018-04-27T16:31:33.989Z,16.90
2018-04-27T16:34:01.601Z,16.80
2018-04-27T16:36:29.993Z,16.70
2018-04-27T16:38:58.526Z,16.70
2018-04-27T16:41:26.193Z,16.70
2018-04-27T16:43:53.839Z,16.70
2018-04-27T16:46:21.504Z,16.50
2018-04-27T16:48:49.957Z,16.30
2018-04-27T16:51:17.724Z,16.40
2018-04-27T16:53:45.389Z,16.30
2018-04-27T16:56:14.833Z,16.40
2018-04-27T16:58:42.779Z,16.40
2018-04-27T17:01:11.462Z,16.40
2018-04-27T17:03:39.886Z,16.30
2018-04-27T17:06:07.531Z,16.20
2018-04-27T17:08:36.293Z,16.00
2018-04-27T17:11:03.934Z,16.00
2018-04-27T17:13:32.768Z,15.90
2018-04-27T17:16:02.169Z,15.60
2018-04-27T17:18:29.984Z,15.60
2018-04-27T17:20:57.771Z,15.70
2018-04-27T17:23:26.592Z,15.70
2018-04-27T17:25:54.688Z,15.50
2018-04-27T17:28:23.600Z,15.50
2018-04-27T17:30:52.257Z,15.50
2018-04-27T17:33:19.973Z,15.50
2018-04-27T17:35:47.973Z,15.50
2018-04-27T17:38:15.608Z,15.50
2018-04-27T17:40:43.505Z,15.50
2018-04-27T17:43:11.112Z,15.40
2018-04-27T17:45:38.878Z,15.40
2018-04-27T17:48:08.613Z,15.30
2018-04-27T17:50:36.365Z,15.30
2018-04-27T17:53:04.052Z,15.20
2018-04-27T17:55:32.441Z,15.10
2018-04-27T17:58:00.914Z,14.70
2018-04-27T18:00:30.219Z,14.70
2018-04-27T18:02:58.654Z,14.50
2018-04-27T18:05:26.291Z,14.50
2018-04-27T18:07:54.220Z,14.50
2018-04-27T18:10:22.114Z,14.30
2018-04-27T18:12:50.833Z,14.10
2018-04-27T18:15:18.527Z,14.10
2018-04-27T18:17:46.223Z,14.00
2018-04-27T18:20:13.919Z,13.80
2018-04-27T18:22:43.083Z,13.70
2018-04-27T18:25:10.751Z,13.60
2018-04-27T18:27:38.433Z,13.50
2018-04-27T18:30:06.970Z,13.30
2018-04-27T18:32:34.696Z,13.30
2018-04-27T18:35:03.103Z,13.00
2018-04-27T18:37:30.949Z,13.00
2018-04-27T18:39:58.935Z,13.00
2018-04-27T18:42:27.333Z,12.80
2018-04-27T18:44:55.057Z,12.80
2018-04-27T18:47:22.760Z,12.80
2018-04-27T18:49:51.241Z,12.60
2018-04-27T18:52:19.688Z,12.50
2018-04-27T18:54:47.383Z,12.50
2018-04-27T18:57:16.557Z,12.40
2018-04-27T18:59:47.540Z,12.30
2018-04-27T19:02:15.186Z,12.20
2018-04-27T19:04:42.842Z,12.10
2018-04-27T19:07:10.530Z,12.00
2018-04-27T19:09:41.632Z,12.00
2018-04-27T19:12:09.271Z,11.90
2018-04-27T19:14:38.648Z,11.80
2018-04-27T19:17:07.283Z,11.80
2018-04-27T19:19:36.539Z,11.60
2018-04-27T19:22:05.121Z,11.60
2018-04-27T19:24:32.754Z,11.50
2018-04-27T19:27:00.422Z,11.50
2018-04-27T19:29:28.897Z,11.50
2018-04-27T19:31:56.538Z,11.40
2018-04-27T19:34:25.603Z,11.30
2018-04-27T19:36:53.274Z,11.10
2018-04-27T19:39:20.934Z,11.20
2018-04-27T19:41:48.800Z,11.10
2018-04-27T19:44:16.567Z,11.10
2018-04-27T19:46:44.988Z,11.00
2018-04-27T19:49:20.833Z,10.90
2018-04-27T19:51:48.531Z,10.90
2018-04-27T19:54:17.181Z,10.70
2018-04-27T19:56:44.916Z,10.70
2018-04-27T19:59:12.714Z,10.60
2018-04-27T20:01:41.268Z,10.50
2018-04-27T20:04:08.967Z,10.40
2018-04-27T20:06:36.693Z,10.30
2018-04-27T20:09:04.355Z,10.20
2018-04-27T20:11:32.383Z,10.10
2018-04-27T20:14:00.229Z,10.10
2018-04-27T20:16:40.359Z,10.10
2018-04-27T20:19:09.195Z,10.00
2018-04-27T20:21:36.810Z,9.90
2018-04-27T20:24:06.238Z,9.80
2018-04-27T20:26:33.851Z,9.80
2018-04-27T20:29:02.401Z,9.70
2018-04-27T20:31:30.059Z,9.70
2018-04-27T20:33:57.681Z,9.70
2018-04-27T20:36:25.634Z,9.60
2018-04-27T20:38:53.292Z,9.50
2018-04-27T20:41:20.943Z,9.60
2018-04-27T20:43:50.764Z,9.50
2018-04-27T20:46:19.269Z,9.50
2018-04-27T20:48:50.728Z,9.40
2018-04-27T20:51:19.137Z,9.40
2018-04-27T21:07:14.175Z,9.10
2018-04-27T21:09:41.820Z,9.10
2018-04-27T21:12:09.478Z,9.10
2018-04-27T21:14:37.130Z,9.00
2018-04-27T21:17:04.804Z,9.00
2018-04-27T21:19:32.472Z,9.00
2018-04-27T21:22:01.038Z,9.00
2018-04-27T21:24:29.492Z,8.90
2018-04-27T21:26:58.201Z,8.90
2018-04-27T21:29:26.965Z,8.80
2018-04-27T21:31:55.559Z,8.80
2018-04-27T21:34:23.253Z,8.80
2018-04-27T21:36:50.921Z,8.80
2018-04-27T21:39:19.452Z,8.80
2018-04-27T21:42:02.882Z,8.80
2018-04-27T21:44:32.274Z,8.80
2018-04-27T21:47:14.301Z,8.80
2018-04-27T21:49:43.005Z,8.80
2018-04-27T21:52:12.602Z,8.80
2018-04-27T21:54:40.262Z,8.80
2018-04-27T21:57:11.200Z,8.80
2018-04-27T21:59:46.546Z,8.80
2018-04-27T22:05:15.141Z,8.90
2018-04-27T22:07:47.022Z,8.90
2018-04-27T22:10:14.695Z,8.90
2018-04-27T22:13:01.065Z,8.90
2018-04-27T22:15:30.160Z,8.90
2018-04-27T22:18:00.112Z,8.90
2018-04-27T22:20:29.650Z,8.90
2018-04-27T22:22:58.139Z,8.90
2018-04-27T22:25:29.385Z,8.80
2018-04-27T22:27:59.337Z,8.80
2018-04-27T22:30:30.656Z,8.80
2018-04-27T22:32:59.130Z,8.80
2018-04-27T22:35:45.020Z,8.70
2018-04-27T22:38:29.809Z,8.80
2018-04-27T22:40:57.468Z,8.80
2018-04-27T22:43:25.551Z,8.80
2018-04-27T22:46:18.168Z,8.80
2018-04-27T22:48:52.014Z,8.70
2018-04-27T23:04:47.059Z,8.50
2018-04-27T23:07:25.790Z,8.50
2018-04-27T23:09:55.110Z,8.50
2018-04-27T23:12:22.769Z,8.50
2018-04-27T23:14:52.169Z,8.50
2018-04-27T23:17:19.905Z,8.50
2018-04-27T23:19:52.880Z,8.50
2018-04-27T23:22:32.785Z,8.50
2018-04-27T23:25:01.539Z,8.50
2018-04-27T23:27:31.902Z,8.40
2018-04-27T23:29:59.842Z,8.40
2018-04-27T23:32:28.313Z,8.30
2018-04-27T23:34:56.743Z,8.30
2018-04-27T23:37:24.408Z,8.30
2018-04-27T23:39:52.051Z,8.30
2018-04-27T23:42:19.699Z,8.30
2018-04-27T23:44:48.190Z,8.30
2018-04-27T23:47:17.981Z,8.30
2018-04-27T23:49:46.998Z,8.30
2018-04-27T23:52:14.744Z,8.30
2018-04-27T23:54:42.416Z,8.20
2018-04-27T23:57:10.055Z,8.20
2018-04-27T23:59:39.628Z,8.10
